aviador You're here:

LFRV Decoded Metar

VANNES in FRANCE
Report Time2017-11-24 18:00:00
UTC Time2017-11-24 18:30:49
Flight Rules vfr VFR
Wind260° at 02 kt
W.Decomp.*RWY 26: 2.0 kt HW -0 kt LCW
RWY 22: 1.5 kt HW 1.3 kt RCW
W.Rank260° ranks 4
Current wind is below 260° avg. (7.2)
Visibility9999 m
Phenomena:N/A
Clouds:N/A
Expected CloudBase > 400 ft AGL from Temp-Dew spread
CeilingNone
Temp07°C (ISA -7)
Dew Point06°C (93% RH)
AAT5.4°C
QNH1014 hPa
Density Alt-315 ft
Elevation445 ft
Report Wrong Elevation
Raw Report
METAR LFRV 241800Z AUTO 26002KT CAVOK 07/06 Q1014=

Extra information for LFRV:More info

Metar Taf Metar & Taf Last 4 Metars F.Rules Stats Wind Profile Meteogram Temp Stats Airport Information Weather charts Add Link Nearby VenuesMetar ALERT Operation Metar Decoded Social comments